sensor_id;sensor_type;location;lat;lon;timestamp;P1;durP1;ratioP1;P2;durP2;ratioP2
54454;SDS011;40364;52.270;10.546;2023-03-24T00:00:13;2.75;;;1.42;;
54454;SDS011;40364;52.270;10.546;2023-03-24T00:02:42;3.38;;;1.35;;
54454;SDS011;40364;52.270;10.546;2023-03-24T00:05:11;1.83;;;1.30;;
54454;SDS011;40364;52.270;10.546;2023-03-24T00:07:38;2.55;;;1.10;;
54454;SDS011;40364;52.270;10.546;2023-03-24T00:10:05;2.47;;;1.27;;
54454;SDS011;40364;52.270;10.546;2023-03-24T00:12:33;4.07;;;1.50;;
54454;SDS011;40364;52.270;10.546;2023-03-24T00:15:02;2.85;;;1.25;;
54454;SDS011;40364;52.270;10.546;2023-03-24T00:17:29;3.72;;;1.27;;
54454;SDS011;40364;52.270;10.546;2023-03-24T00:19:57;2.83;;;1.42;;
54454;SDS011;40364;52.270;10.546;2023-03-24T00:22:23;5.38;;;1.40;;
54454;SDS011;40364;52.270;10.546;2023-03-24T00:24:52;2.22;;;1.17;;
54454;SDS011;40364;52.270;10.546;2023-03-24T00:27:18;4.90;;;1.40;;
54454;SDS011;40364;52.270;10.546;2023-03-24T00:29:45;3.45;;;1.70;;
54454;SDS011;40364;52.270;10.546;2023-03-24T00:32:11;2.55;;;1.48;;
54454;SDS011;40364;52.270;10.546;2023-03-24T00:34:38;2.25;;;1.33;;
54454;SDS011;40364;52.270;10.546;2023-03-24T00:37:06;4.32;;;1.60;;
54454;SDS011;40364;52.270;10.546;2023-03-24T00:39:32;3.35;;;1.40;;
54454;SDS011;40364;52.270;10.546;2023-03-24T00:41:59;3.75;;;1.30;;
54454;SDS011;40364;52.270;10.546;2023-03-24T00:44:27;3.38;;;1.50;;
54454;SDS011;40364;52.270;10.546;2023-03-24T00:46:54;2.00;;;1.08;;
54454;SDS011;40364;52.270;10.546;2023-03-24T00:49:21;3.17;;;1.30;;
54454;SDS011;40364;52.270;10.546;2023-03-24T00:52:07;2.33;;;1.67;;
54454;SDS011;40364;52.270;10.546;2023-03-24T00:54:35;3.88;;;1.48;;
54454;SDS011;40364;52.270;10.546;2023-03-24T00:57:02;1.88;;;1.17;;
54454;SDS011;40364;52.270;10.546;2023-03-24T00:59:29;4.05;;;1.40;;
54454;SDS011;40364;52.270;10.546;2023-03-24T01:01:55;3.35;;;1.38;;
54454;SDS011;40364;52.270;10.546;2023-03-24T01:04:22;3.80;;;1.55;;
54454;SDS011;40364;52.270;10.546;2023-03-24T01:06:50;3.03;;;1.42;;
54454;SDS011;40364;52.270;10.546;2023-03-24T01:09:19;4.30;;;2.20;;
54454;SDS011;40364;52.270;10.546;2023-03-24T01:11:46;2.97;;;1.80;;
54454;SDS011;40364;52.270;10.546;2023-03-24T01:14:13;5.00;;;1.95;;
54454;SDS011;40364;52.270;10.546;2023-03-24T01:16:40;3.17;;;1.80;;
54454;SDS011;40364;52.270;10.546;2023-03-24T01:19:07;8.70;;;2.20;;
54454;SDS011;40364;52.270;10.546;2023-03-24T01:21:34;3.92;;;2.00;;
54454;SDS011;40364;52.270;10.546;2023-03-24T01:24:01;4.32;;;2.38;;
54454;SDS011;40364;52.270;10.546;2023-03-24T01:26:29;4.55;;;2.40;;
54454;SDS011;40364;52.270;10.546;2023-03-24T01:28:55;6.18;;;2.15;;
54454;SDS011;40364;52.270;10.546;2023-03-24T01:31:22;3.17;;;2.20;;
54454;SDS011;40364;52.270;10.546;2023-03-24T01:33:48;4.25;;;2.42;;
54454;SDS011;40364;52.270;10.546;2023-03-24T01:36:15;3.03;;;1.75;;
54454;SDS011;40364;52.270;10.546;2023-03-24T01:38:42;4.70;;;2.20;;
54454;SDS011;40364;52.270;10.546;2023-03-24T01:41:08;4.60;;;2.05;;
54454;SDS011;40364;52.270;10.546;2023-03-24T01:43:36;5.82;;;2.00;;
54454;SDS011;40364;52.270;10.546;2023-03-24T01:46:07;3.40;;;2.40;;
54454;SDS011;40364;52.270;10.546;2023-03-24T01:48:39;5.03;;;2.50;;
54454;SDS011;40364;52.270;10.546;2023-03-24T01:51:07;3.20;;;2.40;;
54454;SDS011;40364;52.270;10.546;2023-03-24T01:53:36;5.45;;;2.38;;
54454;SDS011;40364;52.270;10.546;2023-03-24T01:56:04;9.73;;;2.60;;
54454;SDS011;40364;52.270;10.546;2023-03-24T01:58:31;4.95;;;2.90;;
54454;SDS011;40364;52.270;10.546;2023-03-24T02:01:00;4.72;;;2.38;;
54454;SDS011;40364;52.270;10.546;2023-03-24T02:03:26;6.70;;;2.80;;
54454;SDS011;40364;52.270;10.546;2023-03-24T02:05:58;3.85;;;2.33;;
54454;SDS011;40364;52.270;10.546;2023-03-24T02:08:27;4.60;;;3.22;;
54454;SDS011;40364;52.270;10.546;2023-03-24T02:10:55;5.82;;;3.10;;
54454;SDS011;40364;52.270;10.546;2023-03-24T02:13:23;4.30;;;2.42;;
54454;SDS011;40364;52.270;10.546;2023-03-24T02:15:53;4.38;;;3.03;;
54454;SDS011;40364;52.270;10.546;2023-03-24T02:18:23;3.97;;;2.75;;
54454;SDS011;40364;52.270;10.546;2023-03-24T02:26:23;6.15;;;2.72;;
54454;SDS011;40364;52.270;10.546;2023-03-24T02:28:57;8.05;;;2.67;;
54454;SDS011;40364;52.270;10.546;2023-03-24T02:31:32;3.75;;;2.67;;
54454;SDS011;40364;52.270;10.546;2023-03-24T02:34:13;5.30;;;3.00;;
54454;SDS011;40364;52.270;10.546;2023-03-24T02:36:59;3.55;;;2.53;;
54454;SDS011;40364;52.270;10.546;2023-03-24T02:39:34;3.33;;;2.40;;
54454;SDS011;40364;52.270;10.546;2023-03-24T02:42:04;5.55;;;2.55;;
54454;SDS011;40364;52.270;10.546;2023-03-24T02:44:33;4.65;;;2.88;;
54454;SDS011;40364;52.270;10.546;2023-03-24T02:47:02;3.55;;;2.55;;
54454;SDS011;40364;52.270;10.546;2023-03-24T02:49:30;6.03;;;3.00;;
54454;SDS011;40364;52.270;10.546;2023-03-24T02:51:59;4.25;;;2.47;;
54454;SDS011;40364;52.270;10.546;2023-03-24T02:54:31;4.30;;;2.63;;
54454;SDS011;40364;52.270;10.546;2023-03-24T02:57:03;5.13;;;3.00;;
54454;SDS011;40364;52.270;10.546;2023-03-24T02:59:32;3.85;;;2.60;;
54454;SDS011;40364;52.270;10.546;2023-03-24T03:02:01;5.57;;;2.83;;
54454;SDS011;40364;52.270;10.546;2023-03-24T03:04:29;3.20;;;2.30;;
54454;SDS011;40364;52.270;10.546;2023-03-24T03:06:58;3.95;;;2.50;;
54454;SDS011;40364;52.270;10.546;2023-03-24T03:09:26;5.07;;;2.90;;
54454;SDS011;40364;52.270;10.546;2023-03-24T03:11:53;3.92;;;2.60;;
54454;SDS011;40364;52.270;10.546;2023-03-24T03:14:23;3.22;;;2.45;;
54454;SDS011;40364;52.270;10.546;2023-03-24T03:16:50;3.13;;;2.40;;
54454;SDS011;40364;52.270;10.546;2023-03-24T03:19:19;4.53;;;2.80;;
54454;SDS011;40364;52.270;10.546;2023-03-24T03:21:47;5.07;;;1.95;;
54454;SDS011;40364;52.270;10.546;2023-03-24T03:24:16;3.72;;;2.47;;
54454;SDS011;40364;52.270;10.546;2023-03-24T03:26:44;5.13;;;2.28;;
54454;SDS011;40364;52.270;10.546;2023-03-24T03:29:13;3.95;;;2.30;;
54454;SDS011;40364;52.270;10.546;2023-03-24T03:31:43;3.88;;;2.33;;
54454;SDS011;40364;52.270;10.546;2023-03-24T03:34:15;3.25;;;2.47;;
54454;SDS011;40364;52.270;10.546;2023-03-24T03:36:45;4.13;;;2.20;;
54454;SDS011;40364;52.270;10.546;2023-03-24T03:39:13;3.10;;;2.13;;
54454;SDS011;40364;52.270;10.546;2023-03-24T03:41:41;4.80;;;2.50;;
54454;SDS011;40364;52.270;10.546;2023-03-24T03:44:08;4.40;;;2.28;;
54454;SDS011;40364;52.270;10.546;2023-03-24T03:46:35;4.53;;;2.30;;
54454;SDS011;40364;52.270;10.546;2023-03-24T03:49:03;3.20;;;2.20;;
54454;SDS011;40364;52.270;10.546;2023-03-24T03:51:31;2.72;;;2.20;;
54454;SDS011;40364;52.270;10.546;2023-03-24T03:53:59;3.78;;;2.63;;
54454;SDS011;40364;52.270;10.546;2023-03-24T03:56:26;3.85;;;2.60;;
54454;SDS011;40364;52.270;10.546;2023-03-24T03:58:53;4.80;;;2.53;;
54454;SDS011;40364;52.270;10.546;2023-03-24T04:01:20;3.55;;;2.58;;
54454;SDS011;40364;52.270;10.546;2023-03-24T04:04:00;3.13;;;2.30;;
54454;SDS011;40364;52.270;10.546;2023-03-24T04:06:31;3.75;;;2.25;;
54454;SDS011;40364;52.270;10.546;2023-03-24T04:09:01;3.75;;;2.60;;
54454;SDS011;40364;52.270;10.546;2023-03-24T04:11:34;5.53;;;3.00;;
54454;SDS011;40364;52.270;10.546;2023-03-24T04:14:05;5.80;;;2.92;;
54454;SDS011;40364;52.270;10.546;2023-03-24T04:16:39;5.45;;;3.35;;
54454;SDS011;40364;52.270;10.546;2023-03-24T04:19:11;4.70;;;2.58;;
54454;SDS011;40364;52.270;10.546;2023-03-24T04:21:43;6.15;;;2.88;;
54454;SDS011;40364;52.270;10.546;2023-03-24T04:24:15;6.05;;;3.00;;
54454;SDS011;40364;52.270;10.546;2023-03-24T04:26:47;7.45;;;2.85;;
54454;SDS011;40364;52.270;10.546;2023-03-24T04:29:14;5.47;;;3.15;;
54454;SDS011;40364;52.270;10.546;2023-03-24T04:31:43;4.43;;;2.85;;
54454;SDS011;40364;52.270;10.546;2023-03-24T04:34:15;3.88;;;2.53;;
54454;SDS011;40364;52.270;10.546;2023-03-24T04:36:46;4.03;;;2.90;;
54454;SDS011;40364;52.270;10.546;2023-03-24T04:39:15;4.25;;;2.90;;
54454;SDS011;40364;52.270;10.546;2023-03-24T04:41:42;5.13;;;2.97;;
54454;SDS011;40364;52.270;10.546;2023-03-24T04:44:11;3.90;;;3.00;;
54454;SDS011;40364;52.270;10.546;2023-03-24T04:46:46;3.83;;;2.60;;
54454;SDS011;40364;52.270;10.546;2023-03-24T04:49:12;3.58;;;2.60;;
54454;SDS011;40364;52.270;10.546;2023-03-24T04:51:39;3.85;;;2.47;;
54454;SDS011;40364;52.270;10.546;2023-03-24T04:54:07;4.20;;;2.60;;
54454;SDS011;40364;52.270;10.546;2023-03-24T04:56:36;4.70;;;3.03;;
54454;SDS011;40364;52.270;10.546;2023-03-24T04:59:03;4.07;;;2.85;;
54454;SDS011;40364;52.270;10.546;2023-03-24T05:01:31;5.75;;;2.97;;
54454;SDS011;40364;52.270;10.546;2023-03-24T05:04:01;4.07;;;2.75;;
54454;SDS011;40364;52.270;10.546;2023-03-24T05:06:28;3.67;;;2.65;;
54454;SDS011;40364;52.270;10.546;2023-03-24T05:08:55;6.75;;;3.42;;
54454;SDS011;40364;52.270;10.546;2023-03-24T05:11:24;4.22;;;2.67;;
54454;SDS011;40364;52.270;10.546;2023-03-24T05:13:51;3.22;;;2.53;;
54454;SDS011;40364;52.270;10.546;2023-03-24T05:16:17;7.47;;;3.03;;
54454;SDS011;40364;52.270;10.546;2023-03-24T05:18:44;2.90;;;2.22;;
54454;SDS011;40364;52.270;10.546;2023-03-24T05:21:11;4.40;;;2.85;;
54454;SDS011;40364;52.270;10.546;2023-03-24T05:23:37;5.55;;;2.50;;
54454;SDS011;40364;52.270;10.546;2023-03-24T05:26:04;7.03;;;2.60;;
54454;SDS011;40364;52.270;10.546;2023-03-24T05:28:32;4.07;;;2.55;;
54454;SDS011;40364;52.270;10.546;2023-03-24T05:30:58;5.63;;;2.45;;
54454;SDS011;40364;52.270;10.546;2023-03-24T05:33:25;5.40;;;2.30;;
54454;SDS011;40364;52.270;10.546;2023-03-24T05:35:51;5.07;;;3.00;;
54454;SDS011;40364;52.270;10.546;2023-03-24T05:38:18;6.63;;;3.08;;
54454;SDS011;40364;52.270;10.546;2023-03-24T05:40:44;4.28;;;2.85;;
54454;SDS011;40364;52.270;10.546;2023-03-24T05:43:11;3.50;;;2.78;;
54454;SDS011;40364;52.270;10.546;2023-03-24T05:45:38;3.88;;;3.03;;
54454;SDS011;40364;52.270;10.546;2023-03-24T05:48:05;4.95;;;3.25;;
54454;SDS011;40364;52.270;10.546;2023-03-24T05:50:31;5.63;;;3.22;;
54454;SDS011;40364;52.270;10.546;2023-03-24T05:52:58;5.60;;;3.58;;
54454;SDS011;40364;52.270;10.546;2023-03-24T05:55:25;4.53;;;3.15;;
54454;SDS011;40364;52.270;10.546;2023-03-24T05:57:52;6.20;;;3.45;;
54454;SDS011;40364;52.270;10.546;2023-03-24T06:00:19;7.40;;;2.97;;
54454;SDS011;40364;52.270;10.546;2023-03-24T06:02:48;3.75;;;2.97;;
54454;SDS011;40364;52.270;10.546;2023-03-24T06:05:15;4.03;;;3.30;;
54454;SDS011;40364;52.270;10.546;2023-03-24T06:07:41;4.78;;;3.10;;
54454;SDS011;40364;52.270;10.546;2023-03-24T06:10:08;5.60;;;3.40;;
54454;SDS011;40364;52.270;10.546;2023-03-24T06:12:35;5.13;;;3.30;;
54454;SDS011;40364;52.270;10.546;2023-03-24T06:15:02;4.88;;;3.13;;
54454;SDS011;40364;52.270;10.546;2023-03-24T06:17:29;4.28;;;3.35;;
54454;SDS011;40364;52.270;10.546;2023-03-24T06:19:57;4.63;;;2.97;;
54454;SDS011;40364;52.270;10.546;2023-03-24T06:22:30;3.72;;;3.00;;
54454;SDS011;40364;52.270;10.546;2023-03-24T06:24:57;4.03;;;3.13;;
54454;SDS011;40364;52.270;10.546;2023-03-24T06:27:23;5.85;;;3.65;;
54454;SDS011;40364;52.270;10.546;2023-03-24T06:29:54;7.55;;;3.47;;
54454;SDS011;40364;52.270;10.546;2023-03-24T06:32:20;5.68;;;3.90;;
54454;SDS011;40364;52.270;10.546;2023-03-24T06:34:47;4.72;;;3.10;;
54454;SDS011;40364;52.270;10.546;2023-03-24T06:37:14;4.72;;;3.20;;
54454;SDS011;40364;52.270;10.546;2023-03-24T06:39:41;9.27;;;4.10;;
54454;SDS011;40364;52.270;10.546;2023-03-24T06:42:07;6.30;;;3.10;;
54454;SDS011;40364;52.270;10.546;2023-03-24T06:44:34;6.32;;;2.85;;
54454;SDS011;40364;52.270;10.546;2023-03-24T06:47:00;4.60;;;3.35;;
54454;SDS011;40364;52.270;10.546;2023-03-24T06:49:26;6.78;;;3.05;;
54454;SDS011;40364;52.270;10.546;2023-03-24T06:51:53;7.35;;;3.25;;
54454;SDS011;40364;52.270;10.546;2023-03-24T06:54:21;4.88;;;3.10;;
54454;SDS011;40364;52.270;10.546;2023-03-24T06:56:47;5.45;;;3.38;;
54454;SDS011;40364;52.270;10.546;2023-03-24T06:59:14;5.15;;;3.50;;
54454;SDS011;40364;52.270;10.546;2023-03-24T07:01:41;6.18;;;4.00;;
54454;SDS011;40364;52.270;10.546;2023-03-24T07:04:08;7.13;;;3.78;;
54454;SDS011;40364;52.270;10.546;2023-03-24T07:06:35;5.40;;;3.50;;
54454;SDS011;40364;52.270;10.546;2023-03-24T07:09:01;7.40;;;4.20;;
54454;SDS011;40364;52.270;10.546;2023-03-24T07:11:30;7.22;;;4.30;;
54454;SDS011;40364;52.270;10.546;2023-03-24T07:13:56;13.73;;;6.68;;
54454;SDS011;40364;52.270;10.546;2023-03-24T07:16:23;16.70;;;8.88;;
54454;SDS011;40364;52.270;10.546;2023-03-24T07:18:49;16.40;;;9.85;;
54454;SDS011;40364;52.270;10.546;2023-03-24T07:21:16;21.45;;;10.15;;
54454;SDS011;40364;52.270;10.546;2023-03-24T07:23:42;15.55;;;8.57;;
54454;SDS011;40364;52.270;10.546;2023-03-24T07:26:09;14.98;;;9.02;;
54454;SDS011;40364;52.270;10.546;2023-03-24T07:28:37;9.05;;;5.97;;
54454;SDS011;40364;52.270;10.546;2023-03-24T07:31:04;9.40;;;4.32;;
54454;SDS011;40364;52.270;10.546;2023-03-24T07:33:30;6.25;;;4.10;;
54454;SDS011;40364;52.270;10.546;2023-03-24T07:35:57;5.78;;;3.65;;
54454;SDS011;40364;52.270;10.546;2023-03-24T07:38:23;7.15;;;4.03;;
54454;SDS011;40364;52.270;10.546;2023-03-24T07:40:50;8.13;;;3.63;;
54454;SDS011;40364;52.270;10.546;2023-03-24T07:43:16;7.20;;;3.80;;
54454;SDS011;40364;52.270;10.546;2023-03-24T07:45:44;5.10;;;3.42;;
54454;SDS011;40364;52.270;10.546;2023-03-24T07:48:11;4.50;;;3.47;;
54454;SDS011;40364;52.270;10.546;2023-03-24T07:50:37;4.80;;;2.92;;
54454;SDS011;40364;52.270;10.546;2023-03-24T07:53:04;4.68;;;2.88;;
54454;SDS011;40364;52.270;10.546;2023-03-24T07:55:33;3.97;;;2.67;;
54454;SDS011;40364;52.270;10.546;2023-03-24T07:58:00;4.88;;;2.90;;
54454;SDS011;40364;52.270;10.546;2023-03-24T08:00:26;4.82;;;2.38;;
54454;SDS011;40364;52.270;10.546;2023-03-24T08:02:54;4.07;;;2.60;;
54454;SDS011;40364;52.270;10.546;2023-03-24T08:05:21;3.85;;;2.33;;
54454;SDS011;40364;52.270;10.546;2023-03-24T08:07:49;3.55;;;2.03;;
54454;SDS011;40364;52.270;10.546;2023-03-24T08:10:17;2.58;;;1.98;;
54454;SDS011;40364;52.270;10.546;2023-03-24T08:12:44;2.20;;;1.77;;
54454;SDS011;40364;52.270;10.546;2023-03-24T08:15:11;2.08;;;1.75;;
54454;SDS011;40364;52.270;10.546;2023-03-24T08:17:37;2.88;;;1.90;;
54454;SDS011;40364;52.270;10.546;2023-03-24T08:20:07;3.22;;;1.92;;
54454;SDS011;40364;52.270;10.546;2023-03-24T08:22:38;3.45;;;2.15;;
54454;SDS011;40364;52.270;10.546;2023-03-24T08:25:05;3.20;;;1.90;;
54454;SDS011;40364;52.270;10.546;2023-03-24T08:27:32;2.20;;;2.00;;
54454;SDS011;40364;52.270;10.546;2023-03-24T08:29:58;2.65;;;2.25;;
54454;SDS011;40364;52.270;10.546;2023-03-24T08:32:25;6.40;;;2.08;;
54454;SDS011;40364;52.270;10.546;2023-03-24T08:34:51;3.15;;;2.50;;
54454;SDS011;40364;52.270;10.546;2023-03-24T08:37:20;2.92;;;2.33;;
54454;SDS011;40364;52.270;10.546;2023-03-24T08:39:46;5.38;;;2.22;;
54454;SDS011;40364;52.270;10.546;2023-03-24T08:42:13;4.78;;;2.63;;
54454;SDS011;40364;52.270;10.546;2023-03-24T08:44:39;2.42;;;2.22;;
54454;SDS011;40364;52.270;10.546;2023-03-24T08:47:06;4.22;;;2.03;;
54454;SDS011;40364;52.270;10.546;2023-03-24T08:49:32;2.25;;;1.70;;
54454;SDS011;40364;52.270;10.546;2023-03-24T08:51:59;1.90;;;1.67;;
54454;SDS011;40364;52.270;10.546;2023-03-24T08:54:27;1.73;;;1.50;;
54454;SDS011;40364;52.270;10.546;2023-03-24T08:56:53;2.50;;;1.77;;
54454;SDS011;40364;52.270;10.546;2023-03-24T08:59:19;2.55;;;1.40;;
54454;SDS011;40364;52.270;10.546;2023-03-24T09:01:46;2.50;;;1.35;;
54454;SDS011;40364;52.270;10.546;2023-03-24T09:04:12;2.33;;;1.58;;
54454;SDS011;40364;52.270;10.546;2023-03-24T09:06:39;2.28;;;1.20;;
54454;SDS011;40364;52.270;10.546;2023-03-24T09:09:05;1.80;;;1.17;;
54454;SDS011;40364;52.270;10.546;2023-03-24T09:11:33;1.92;;;0.90;;
54454;SDS011;40364;52.270;10.546;2023-03-24T09:14:00;2.53;;;0.90;;
54454;SDS011;40364;52.270;10.546;2023-03-24T09:16:26;2.63;;;0.90;;
54454;SDS011;40364;52.270;10.546;2023-03-24T09:18:53;2.13;;;1.17;;
54454;SDS011;40364;52.270;10.546;2023-03-24T09:21:19;2.70;;;0.73;;
54454;SDS011;40364;52.270;10.546;2023-03-24T09:23:45;2.92;;;0.80;;
54454;SDS011;40364;52.270;10.546;2023-03-24T09:26:12;1.63;;;0.82;;
54454;SDS011;40364;52.270;10.546;2023-03-24T09:28:39;2.08;;;0.80;;
54454;SDS011;40364;52.270;10.546;2023-03-24T09:31:06;1.30;;;0.70;;
54454;SDS011;40364;52.270;10.546;2023-03-24T09:33:32;2.20;;;0.70;;
54454;SDS011;40364;52.270;10.546;2023-03-24T09:35:59;2.88;;;0.80;;
54454;SDS011;40364;52.270;10.546;2023-03-24T09:38:26;1.63;;;0.70;;
54454;SDS011;40364;52.270;10.546;2023-03-24T09:40:54;0.85;;;0.50;;
54454;SDS011;40364;52.270;10.546;2023-03-24T09:43:23;1.42;;;0.50;;
54454;SDS011;40364;52.270;10.546;2023-03-24T09:45:53;2.58;;;0.70;;
54454;SDS011;40364;52.270;10.546;2023-03-24T09:48:21;2.88;;;0.90;;
54454;SDS011;40364;52.270;10.546;2023-03-24T09:50:52;3.20;;;0.80;;
54454;SDS011;40364;52.270;10.546;2023-03-24T09:53:23;1.77;;;0.70;;
54454;SDS011;40364;52.270;10.546;2023-03-24T09:55:52;5.55;;;0.70;;
54454;SDS011;40364;52.270;10.546;2023-03-24T09:58:19;1.45;;;0.60;;
54454;SDS011;40364;52.270;10.546;2023-03-24T10:00:46;3.78;;;0.80;;
54454;SDS011;40364;52.270;10.546;2023-03-24T10:03:15;7.47;;;1.08;;
54454;SDS011;40364;52.270;10.546;2023-03-24T10:05:47;2.58;;;0.73;;
54454;SDS011;40364;52.270;10.546;2023-03-24T10:08:16;3.28;;;0.88;;
54454;SDS011;40364;52.270;10.546;2023-03-24T10:10:47;3.15;;;0.77;;
54454;SDS011;40364;52.270;10.546;2023-03-24T10:13:17;2.53;;;1.08;;
54454;SDS011;40364;52.270;10.546;2023-03-24T10:15:46;2.15;;;0.80;;
54454;SDS011;40364;52.270;10.546;2023-03-24T10:21:02;3.80;;;0.80;;
54454;SDS011;40364;52.270;10.546;2023-03-24T10:23:32;3.92;;;0.80;;
54454;SDS011;40364;52.270;10.546;2023-03-24T10:26:01;5.00;;;1.00;;
54454;SDS011;40364;52.270;10.546;2023-03-24T10:28:31;3.33;;;1.00;;
54454;SDS011;40364;52.270;10.546;2023-03-24T10:31:00;5.78;;;1.17;;
54454;SDS011;40364;52.270;10.546;2023-03-24T10:33:28;5.05;;;1.50;;
54454;SDS011;40364;52.270;10.546;2023-03-24T10:35:56;2.55;;;1.10;;
54454;SDS011;40364;52.270;10.546;2023-03-24T10:38:25;6.18;;;1.00;;
54454;SDS011;40364;52.270;10.546;2023-03-24T10:40:51;2.97;;;1.38;;
54454;SDS011;40364;52.270;10.546;2023-03-24T10:43:19;7.10;;;1.42;;
54454;SDS011;40364;52.270;10.546;2023-03-24T10:45:47;5.10;;;1.40;;
54454;SDS011;40364;52.270;10.546;2023-03-24T10:48:32;5.05;;;1.33;;
54454;SDS011;40364;52.270;10.546;2023-03-24T10:50:58;2.90;;;1.27;;
54454;SDS011;40364;52.270;10.546;2023-03-24T10:53:26;2.63;;;1.30;;
54454;SDS011;40364;52.270;10.546;2023-03-24T10:55:52;5.18;;;1.73;;
54454;SDS011;40364;52.270;10.546;2023-03-24T10:58:20;7.40;;;1.40;;
54454;SDS011;40364;52.270;10.546;2023-03-24T11:00:51;7.78;;;1.73;;
54454;SDS011;40364;52.270;10.546;2023-03-24T11:03:20;4.93;;;1.65;;
54454;SDS011;40364;52.270;10.546;2023-03-24T11:05:48;3.67;;;1.40;;
54454;SDS011;40364;52.270;10.546;2023-03-24T11:08:21;5.47;;;1.45;;
54454;SDS011;40364;52.270;10.546;2023-03-24T11:10:51;5.18;;;1.13;;
54454;SDS011;40364;52.270;10.546;2023-03-24T11:13:18;4.10;;;1.50;;
54454;SDS011;40364;52.270;10.546;2023-03-24T11:15:52;5.47;;;1.55;;
54454;SDS011;40364;52.270;10.546;2023-03-24T11:18:18;8.05;;;1.83;;
54454;SDS011;40364;52.270;10.546;2023-03-24T11:20:45;3.67;;;1.48;;
54454;SDS011;40364;52.270;10.546;2023-03-24T11:23:14;5.88;;;1.92;;
54454;SDS011;40364;52.270;10.546;2023-03-24T11:25:43;7.68;;;1.52;;
54454;SDS011;40364;52.270;10.546;2023-03-24T11:28:14;8.32;;;2.22;;
54454;SDS011;40364;52.270;10.546;2023-03-24T11:30:45;9.65;;;1.67;;
54454;SDS011;40364;52.270;10.546;2023-03-24T11:33:14;4.03;;;1.50;;
54454;SDS011;40364;52.270;10.546;2023-03-24T11:35:43;6.43;;;1.73;;
54454;SDS011;40364;52.270;10.546;2023-03-24T11:38:12;5.82;;;1.65;;
54454;SDS011;40364;52.270;10.546;2023-03-24T11:40:43;6.32;;;1.70;;
54454;SDS011;40364;52.270;10.546;2023-03-24T11:43:19;7.47;;;1.85;;
54454;SDS011;40364;52.270;10.546;2023-03-24T11:45:49;3.88;;;1.75;;
54454;SDS011;40364;52.270;10.546;2023-03-24T11:48:23;5.25;;;1.90;;
54454;SDS011;40364;52.270;10.546;2023-03-24T11:50:51;4.05;;;1.50;;
54454;SDS011;40364;52.270;10.546;2023-03-24T11:53:18;6.93;;;1.65;;
54454;SDS011;40364;52.270;10.546;2023-03-24T11:55:48;6.68;;;1.45;;
54454;SDS011;40364;52.270;10.546;2023-03-24T11:58:21;5.63;;;1.42;;
54454;SDS011;40364;52.270;10.546;2023-03-24T12:00:53;4.55;;;1.25;;
54454;SDS011;40364;52.270;10.546;2023-03-24T12:03:44;6.57;;;1.63;;
54454;SDS011;40364;52.270;10.546;2023-03-24T12:06:17;4.28;;;1.30;;
54454;SDS011;40364;52.270;10.546;2023-03-24T12:08:51;6.28;;;1.50;;
54454;SDS011;40364;52.270;10.546;2023-03-24T12:11:22;4.93;;;1.80;;
54454;SDS011;40364;52.270;10.546;2023-03-24T12:13:53;7.15;;;1.70;;
54454;SDS011;40364;52.270;10.546;2023-03-24T12:16:26;5.47;;;1.73;;
54454;SDS011;40364;52.270;10.546;2023-03-24T12:19:05;6.57;;;1.75;;
54454;SDS011;40364;52.270;10.546;2023-03-24T12:21:40;4.28;;;1.50;;
54454;SDS011;40364;52.270;10.546;2023-03-24T12:24:13;5.63;;;1.83;;
54454;SDS011;40364;52.270;10.546;2023-03-24T12:26:44;7.70;;;2.00;;
54454;SDS011;40364;52.270;10.546;2023-03-24T12:29:19;3.83;;;1.40;;
54454;SDS011;40364;52.270;10.546;2023-03-24T12:31:55;4.40;;;1.65;;
54454;SDS011;40364;52.270;10.546;2023-03-24T12:34:38;4.32;;;1.33;;
54454;SDS011;40364;52.270;10.546;2023-03-24T12:37:08;5.25;;;1.30;;
54454;SDS011;40364;52.270;10.546;2023-03-24T12:39:38;4.18;;;1.42;;
54454;SDS011;40364;52.270;10.546;2023-03-24T12:42:10;3.83;;;1.30;;
54454;SDS011;40364;52.270;10.546;2023-03-24T12:44:55;4.47;;;1.38;;
54454;SDS011;40364;52.270;10.546;2023-03-24T12:47:29;1.88;;;1.10;;
54454;SDS011;40364;52.270;10.546;2023-03-24T12:50:03;3.88;;;1.40;;
54454;SDS011;40364;52.270;10.546;2023-03-24T12:52:37;6.65;;;1.52;;
54454;SDS011;40364;52.270;10.546;2023-03-24T12:55:08;6.20;;;2.05;;
54454;SDS011;40364;52.270;10.546;2023-03-24T12:57:38;3.97;;;1.33;;
54454;SDS011;40364;52.270;10.546;2023-03-24T13:00:08;9.45;;;1.85;;
54454;SDS011;40364;52.270;10.546;2023-03-24T13:02:37;5.03;;;1.80;;
54454;SDS011;40364;52.270;10.546;2023-03-24T13:05:05;6.95;;;2.03;;
54454;SDS011;40364;52.270;10.546;2023-03-24T13:07:32;5.05;;;1.85;;
54454;SDS011;40364;52.270;10.546;2023-03-24T13:10:02;3.47;;;1.60;;
54454;SDS011;40364;52.270;10.546;2023-03-24T13:12:31;3.28;;;1.90;;
54454;SDS011;40364;52.270;10.546;2023-03-24T13:15:00;7.07;;;1.80;;
54454;SDS011;40364;52.270;10.546;2023-03-24T13:17:30;7.35;;;2.25;;
54454;SDS011;40364;52.270;10.546;2023-03-24T13:19:58;6.65;;;2.58;;
54454;SDS011;40364;52.270;10.546;2023-03-24T13:22:25;10.50;;;3.00;;
54454;SDS011;40364;52.270;10.546;2023-03-24T13:24:52;6.82;;;2.50;;
54454;SDS011;40364;52.270;10.546;2023-03-24T13:27:20;4.40;;;2.22;;
54454;SDS011;40364;52.270;10.546;2023-03-24T13:29:51;6.65;;;2.17;;
54454;SDS011;40364;52.270;10.546;2023-03-24T13:32:25;5.40;;;2.50;;
54454;SDS011;40364;52.270;10.546;2023-03-24T13:34:55;6.25;;;2.35;;
54454;SDS011;40364;52.270;10.546;2023-03-24T13:37:24;9.73;;;2.30;;
54454;SDS011;40364;52.270;10.546;2023-03-24T13:39:53;7.45;;;2.50;;
54454;SDS011;40364;52.270;10.546;2023-03-24T13:42:29;7.15;;;2.22;;
54454;SDS011;40364;52.270;10.546;2023-03-24T13:47:23;7.68;;;2.20;;
54454;SDS011;40364;52.270;10.546;2023-03-24T13:49:52;7.45;;;2.70;;
54454;SDS011;40364;52.270;10.546;2023-03-24T13:52:22;6.82;;;1.88;;
54454;SDS011;40364;52.270;10.546;2023-03-24T13:54:51;5.22;;;1.88;;
54454;SDS011;40364;52.270;10.546;2023-03-24T13:57:19;5.50;;;2.03;;
54454;SDS011;40364;52.270;10.546;2023-03-24T13:59:56;6.43;;;1.98;;
54454;SDS011;40364;52.270;10.546;2023-03-24T14:05:08;7.85;;;2.22;;
54454;SDS011;40364;52.270;10.546;2023-03-24T14:07:42;6.28;;;2.05;;
54454;SDS011;40364;52.270;10.546;2023-03-24T14:10:35;6.90;;;2.33;;
54454;SDS011;40364;52.270;10.546;2023-03-24T14:13:02;10.50;;;2.72;;
54454;SDS011;40364;52.270;10.546;2023-03-24T14:15:29;5.18;;;1.90;;
54454;SDS011;40364;52.270;10.546;2023-03-24T14:18:12;7.88;;;2.25;;
54454;SDS011;40364;52.270;10.546;2023-03-24T14:20:40;3.13;;;1.80;;
54454;SDS011;40364;52.270;10.546;2023-03-24T14:23:15;7.72;;;2.30;;
54454;SDS011;40364;52.270;10.546;2023-03-24T14:25:51;5.10;;;2.20;;
54454;SDS011;40364;52.270;10.546;2023-03-24T14:28:19;7.60;;;3.00;;
54454;SDS011;40364;52.270;10.546;2023-03-24T14:30:53;5.75;;;2.15;;
54454;SDS011;40364;52.270;10.546;2023-03-24T14:33:22;3.72;;;2.00;;
54454;SDS011;40364;52.270;10.546;2023-03-24T14:35:50;4.85;;;1.92;;
54454;SDS011;40364;52.270;10.546;2023-03-24T14:38:23;4.97;;;1.70;;
54454;SDS011;40364;52.270;10.546;2023-03-24T14:40:51;8.77;;;2.38;;
54454;SDS011;40364;52.270;10.546;2023-03-24T14:43:20;4.45;;;1.95;;
54454;SDS011;40364;52.270;10.546;2023-03-24T14:45:57;7.32;;;1.88;;
54454;SDS011;40364;52.270;10.546;2023-03-24T14:48:31;8.60;;;1.90;;
54454;SDS011;40364;52.270;10.546;2023-03-24T14:50:58;5.55;;;1.92;;
54454;SDS011;40364;52.270;10.546;2023-03-24T14:53:27;5.65;;;1.75;;
54454;SDS011;40364;52.270;10.546;2023-03-24T14:55:53;7.13;;;1.73;;